Time;durP1;ratioP1;P1;durP2;ratioP2;P2;SDS_P1;SDS_P2;PMS_P1;PMS_P2;Temp;Humidity;BMP_temperature;BMP_pressure;BME280_temperature;BME280_humidity;BME280_pressure;Samples;Min_cycle;Max_cycle;Signal;HPM_P1;HPM_P2
2023/08/19 00:00:21;;;;;;;1.73;1.30;;;27.60;55.00;;;;;;5083647;28;20082;-65
2023/08/19 00:02:46;;;;;;;1.55;1.25;;;27.60;55.00;;;;;;5079154;28;20029;-66
2023/08/19 00:05:12;;;;;;;1.80;1.30;;;27.60;55.00;;;;;;5082157;28;20532;-64
2023/08/19 00:07:38;;;;;;;1.80;1.30;;;27.60;55.00;;;;;;5081710;28;20039;-65
2023/08/19 00:10:05;;;;;;;1.80;1.40;;;27.60;55.00;;;;;;5082304;28;20100;-67
2023/08/19 00:12:30;;;;;;;1.38;1.10;;;27.60;55.50;;;;;;5079147;28;20028;-66
2023/08/19 00:14:56;;;;;;;1.55;1.20;;;27.60;55.10;;;;;;5080455;28;20423;-65
2023/08/19 00:17:23;;;;;;;1.67;1.30;;;27.50;55.00;;;;;;5081448;28;20024;-65
2023/08/19 00:19:49;;;;;;;1.60;1.40;;;27.60;55.10;;;;;;5083599;28;20020;-65
2023/08/19 00:22:15;;;;;;;1.50;1.30;;;27.60;55.10;;;;;;5081076;28;20031;-65
2023/08/19 00:24:40;;;;;;;1.90;1.40;;;27.50;55.00;;;;;;5080335;28;20107;-63
2023/08/19 00:27:06;;;;;;;2.03;1.40;;;27.60;55.10;;;;;;5079732;28;20032;-63
2023/08/19 00:29:32;;;;;;;1.55;1.33;;;27.50;55.00;;;;;;5081383;28;20361;-62
2023/08/19 00:32:02;;;;;;;1.60;1.10;;;27.50;55.00;;;;;;5081670;28;20032;-64
2023/08/19 00:34:28;;;;;;;1.65;1.20;;;27.50;55.00;;;;;;5080456;28;20064;-64
2023/08/19 00:36:54;;;;;;;1.75;1.30;;;27.50;55.00;;;;;;5080443;28;20063;-62
2023/08/19 00:39:20;;;;;;;1.33;1.20;;;27.50;55.50;;;;;;5080214;28;20024;-63
2023/08/19 00:41:45;;;;;;;1.70;1.38;;;27.50;55.00;;;;;;5081844;28;20485;-68
2023/08/19 00:44:11;;;;;;;1.88;1.42;;;27.50;55.00;;;;;;5082379;28;20553;-69
2023/08/19 00:46:37;;;;;;;1.35;1.15;;;27.50;55.60;;;;;;5082764;28;20044;-69
2023/08/19 00:49:04;;;;;;;1.92;1.33;;;27.50;55.00;;;;;;5081850;28;20025;-69
2023/08/19 00:51:30;;;;;;;1.40;1.23;;;27.50;55.00;;;;;;5084085;28;20471;-68
2023/08/19 00:53:56;;;;;;;1.90;1.40;;;27.50;55.10;;;;;;5082702;28;20471;-68
2023/08/19 00:56:21;;;;;;;1.65;1.40;;;27.50;55.00;;;;;;5080903;28;20027;-67
2023/08/19 00:58:47;;;;;;;1.52;1.30;;;27.50;55.00;;;;;;5083167;28;20682;-70
2023/08/19 01:01:13;;;;;;;1.95;1.20;;;27.50;55.00;;;;;;5080361;28;20027;-67
2023/08/19 01:03:38;;;;;;;1.60;1.30;;;27.50;55.10;;;;;;5080623;28;20387;-68
2023/08/19 01:06:23;;;;;;;1.40;1.30;;;27.50;55.00;;;;;;5083623;28;20028;-68
2023/08/19 01:09:01;;;;;;;1.80;1.40;;;27.50;55.10;;;;;;5082569;28;20371;-68
2023/08/19 01:11:57;;;;;;;1.73;1.30;;;27.50;55.10;;;;;;5078527;28;20063;-68
2023/08/19 01:14:28;;;;;;;1.77;1.40;;;27.50;55.10;;;;;;5079983;28;20035;-69
2023/08/19 01:16:55;;;;;;;1.75;1.30;;;27.50;55.00;;;;;;5083394;28;20100;-69
2023/08/19 01:19:27;;;;;;;1.98;1.50;;;27.50;55.10;;;;;;5080580;28;20032;-68
2023/08/19 01:21:57;;;;;;;1.42;1.10;;;27.50;55.10;;;;;;5080854;28;20028;-68
2023/08/19 01:24:25;;;;;;;1.70;1.30;;;27.50;55.10;;;;;;5079557;28;20058;-68
2023/08/19 01:26:51;;;;;;;1.90;1.30;;;27.40;55.00;;;;;;5078747;28;20032;-68
2023/08/19 01:29:16;;;;;;;1.65;1.38;;;27.50;55.10;;;;;;5080889;28;20036;-69
2023/08/19 01:31:42;;;;;;;2.38;1.63;;;27.50;55.10;;;;;;5080875;28;20545;-69
2023/08/19 01:34:11;;;;;;;1.20;1.10;;;27.40;55.00;;;;;;5080150;28;20090;-68
2023/08/19 01:36:44;;;;;;;1.80;1.25;;;27.50;55.10;;;;;;5079331;28;20051;-67
2023/08/19 01:39:11;;;;;;;1.80;1.20;;;27.50;55.10;;;;;;5079187;28;20563;-68
2023/08/19 01:41:37;;;;;;;1.65;1.38;;;27.50;55.10;;;;;;5078207;28;20245;-67
2023/08/19 01:44:03;;;;;;;1.98;1.45;;;27.50;55.10;;;;;;5080739;28;20024;-68
2023/08/19 01:46:29;;;;;;;1.33;1.15;;;27.40;55.00;;;;;;5080579;28;20432;-68
2023/08/19 01:48:55;;;;;;;1.50;1.10;;;27.50;55.10;;;;;;5080248;28;20109;-68
2023/08/19 01:51:21;;;;;;;1.35;1.10;;;27.40;55.00;;;;;;5081918;28;20032;-64
2023/08/19 01:53:47;;;;;;;1.67;1.20;;;27.40;55.00;;;;;;5081833;28;20891;-64
2023/08/19 01:56:12;;;;;;;1.40;1.30;;;27.50;55.10;;;;;;5078506;28;20032;-62
2023/08/19 01:58:38;;;;;;;2.08;1.50;;;27.40;55.00;;;;;;5078284;28;20518;-62
2023/08/19 02:01:04;;;;;;;1.73;1.20;;;27.50;55.10;;;;;;5080315;28;20396;-63
2023/08/19 02:03:29;;;;;;;1.60;1.25;;;27.40;55.10;;;;;;5080279;28;20024;-62
2023/08/19 02:05:55;;;;;;;1.85;1.23;;;27.40;55.00;;;;;;5080774;28;20028;-64
2023/08/19 02:08:21;;;;;;;1.20;1.00;;;27.40;55.00;;;;;;5079918;28;20031;-63
2023/08/19 02:10:46;;;;;;;1.52;1.13;;;27.40;55.10;;;;;;5077222;28;20062;-64
2023/08/19 02:13:12;;;;;;;1.45;1.08;;;27.40;55.10;;;;;;5079632;28;20028;-62
2023/08/19 02:15:38;;;;;;;1.73;1.30;;;27.40;55.00;;;;;;5079657;28;20024;-63
2023/08/19 02:18:04;;;;;;;1.60;1.20;;;27.40;55.00;;;;;;5079667;28;20545;-63
2023/08/19 02:20:29;;;;;;;2.20;1.30;;;27.40;55.10;;;;;;5080017;28;20035;-64
2023/08/19 02:22:55;;;;;;;1.30;1.20;;;27.40;55.00;;;;;;5079430;28;20016;-64
2023/08/19 02:25:21;;;;;;;1.58;1.27;;;27.40;55.00;;;;;;5079780;28;20035;-64
2023/08/19 02:27:49;;;;;;;1.40;1.20;;;27.40;55.10;;;;;;5076606;28;20016;-62
2023/08/19 02:30:14;;;;;;;1.42;1.10;;;27.40;55.10;;;;;;5078555;28;20499;-64
2023/08/19 02:32:40;;;;;;;1.20;1.08;;;27.40;55.10;;;;;;5077669;28;20024;-62
2023/08/19 02:35:06;;;;;;;1.25;1.15;;;27.40;55.10;;;;;;5077812;28;20429;-63
2023/08/19 02:37:32;;;;;;;1.40;1.10;;;27.40;55.10;;;;;;5079232;28;20028;-63
2023/08/19 02:39:58;;;;;;;1.30;1.10;;;27.40;55.10;;;;;;5079966;28;20028;-62
2023/08/19 02:42:23;;;;;;;1.30;1.10;;;27.40;55.10;;;;;;5078549;28;20514;-64
2023/08/19 02:44:49;;;;;;;1.48;1.20;;;27.40;55.10;;;;;;5080131;28;20059;-65
2023/08/19 02:47:15;;;;;;;1.50;1.20;;;27.30;55.00;;;;;;5080285;28;20342;-65
2023/08/19 02:49:40;;;;;;;1.77;1.30;;;27.40;55.10;;;;;;5077045;28;20032;-64
2023/08/19 02:52:06;;;;;;;1.67;1.30;;;27.40;55.10;;;;;;5079404;28;20082;-65
2023/08/19 02:54:32;;;;;;;1.45;1.20;;;27.30;55.00;;;;;;5060002;28;20584;-64
2023/08/19 02:56:57;;;;;;;1.58;1.30;;;27.30;55.00;;;;;;5077288;28;20345;-64
2023/08/19 02:59:23;;;;;;;1.20;1.00;;;27.40;55.10;;;;;;5079355;28;20118;-64
2023/08/19 03:01:49;;;;;;;1.48;1.20;;;27.30;55.00;;;;;;5076483;28;20161;-64
2023/08/19 03:04:14;;;;;;;1.40;1.10;;;27.30;55.00;;;;;;5075235;28;20061;-66
2023/08/19 03:06:41;;;;;;;1.58;1.30;;;27.30;55.00;;;;;;5076333;28;20119;-63
2023/08/19 03:09:07;;;;;;;1.40;1.20;;;27.40;55.10;;;;;;5079635;28;20395;-66
2023/08/19 03:11:35;;;;;;;1.40;1.13;;;27.30;55.10;;;;;;5077033;28;20573;-65
2023/08/19 03:14:01;;;;;;;1.40;1.20;;;27.30;55.10;;;;;;5077608;28;20024;-66
2023/08/19 03:16:26;;;;;;;1.40;1.10;;;27.30;55.00;;;;;;5076786;28;20029;-65
2023/08/19 03:18:52;;;;;;;1.58;1.15;;;27.30;55.10;;;;;;5079334;28;20024;-65
2023/08/19 03:21:18;;;;;;;1.40;1.20;;;27.30;55.10;;;;;;5077776;28;20036;-65
2023/08/19 03:23:43;;;;;;;1.20;1.10;;;27.30;55.10;;;;;;5079900;28;20490;-66
2023/08/19 03:26:09;;;;;;;1.90;1.30;;;27.30;55.10;;;;;;5079452;28;20527;-65
2023/08/19 03:28:35;;;;;;;1.48;1.27;;;27.30;55.10;;;;;;5078075;28;20116;-65
2023/08/19 03:31:07;;;;;;;1.38;1.10;;;27.30;55.10;;;;;;5075652;28;20036;-66
2023/08/19 03:33:33;;;;;;;1.70;1.50;;;27.30;55.10;;;;;;5075823;28;20024;-66
2023/08/19 03:36:00;;;;;;;1.20;1.10;;;27.30;55.00;;;;;;5078423;28;20024;-65
2023/08/19 03:38:26;;;;;;;1.52;1.20;;;27.30;55.60;;;;;;5076455;28;20033;-65
2023/08/19 03:40:52;;;;;;;1.42;1.10;;;27.30;55.10;;;;;;5077247;28;20024;-65
2023/08/19 03:43:18;;;;;;;1.20;1.10;;;27.30;55.10;;;;;;5078644;28;20426;-66
2023/08/19 03:45:43;;;;;;;1.38;1.10;;;27.30;55.10;;;;;;5075329;28;20094;-64
2023/08/19 03:48:09;;;;;;;1.50;1.20;;;27.30;55.10;;;;;;5077799;28;20384;-64
2023/08/19 03:50:34;;;;;;;1.98;1.13;;;27.20;55.00;;;;;;5078307;28;20072;-64
2023/08/19 03:53:00;;;;;;;1.63;1.27;;;27.30;55.60;;;;;;5077119;28;20036;-65
2023/08/19 03:55:26;;;;;;;1.40;1.10;;;27.30;55.10;;;;;;5075844;28;20051;-62
2023/08/19 03:57:51;;;;;;;1.58;1.10;;;27.30;55.10;;;;;;5078132;28;20021;-62
2023/08/19 04:00:17;;;;;;;1.40;1.20;;;27.20;55.00;;;;;;5078066;28;20052;-62
2023/08/19 04:02:43;;;;;;;1.40;1.13;;;27.30;55.10;;;;;;5077485;28;20077;-63
2023/08/19 04:05:12;;;;;;;1.88;1.35;;;27.30;55.60;;;;;;5077442;28;20051;-63
2023/08/19 04:07:37;;;;;;;;;;;27.20;55.10;;;;;;5077869;28;20158;-62
2023/08/19 04:10:04;;;;;;;1.52;1.20;;;27.20;55.00;;;;;;5079506;28;20373;-62
2023/08/19 04:12:29;;;;;;;1.38;1.20;;;27.20;55.00;;;;;;5075120;28;20035;-70
2023/08/19 04:14:55;;;;;;;1.50;1.15;;;27.20;55.10;;;;;;5078072;28;20385;-70
2023/08/19 04:17:21;;;;;;;1.40;1.10;;;27.20;55.10;;;;;;5078878;28;20476;-72
2023/08/19 04:19:46;;;;;;;1.23;1.13;;;27.20;55.00;;;;;;5076606;28;20027;-70
2023/08/19 04:22:14;;;;;;;1.75;1.45;;;27.20;54.90;;;;;;5078392;28;20073;-70
2023/08/19 04:24:39;;;;;;;2.10;1.63;;;27.20;53.80;;;;;;5076545;28;20032;-70
2023/08/19 04:27:06;;;;;;;2.65;1.85;;;27.20;52.90;;;;;;5075108;28;20036;-70
2023/08/19 04:29:34;;;;;;;2.50;1.90;;;27.20;52.30;;;;;;5077436;28;20391;-70
2023/08/19 04:32:03;;;;;;;2.65;2.13;;;27.20;52.10;;;;;;5076936;28;20510;-70
2023/08/19 04:34:30;;;;;;;3.08;2.22;;;27.20;51.80;;;;;;5077855;28;20527;-70
2023/08/19 04:36:55;;;;;;;2.90;2.17;;;27.10;51.40;;;;;;5077667;28;20503;-70
2023/08/19 04:39:22;;;;;;;2.88;2.10;;;27.10;51.30;;;;;;5077974;28;20021;-70
2023/08/19 04:41:48;;;;;;;3.53;2.10;;;27.10;51.10;;;;;;5079968;28;20038;-69
2023/08/19 04:44:14;;;;;;;2.60;2.05;;;27.10;51.00;;;;;;5080366;28;20788;-70
2023/08/19 04:46:40;;;;;;;2.85;2.05;;;27.00;50.80;;;;;;5082864;28;20131;-71
2023/08/19 04:49:07;;;;;;;3.05;2.08;;;27.00;50.80;;;;;;5082536;28;20456;-70
2023/08/19 04:51:33;;;;;;;3.75;1.95;;;27.00;50.70;;;;;;5080563;28;20036;-70
2023/08/19 04:53:59;;;;;;;2.72;1.80;;;26.90;50.70;;;;;;5080313;28;20440;-70
2023/08/19 04:56:25;;;;;;;2.80;1.90;;;26.90;50.70;;;;;;5081973;28;20058;-70
2023/08/19 04:58:50;;;;;;;2.97;1.73;;;26.90;50.80;;;;;;5078814;28;20081;-70
2023/08/19 05:01:16;;;;;;;3.03;2.05;;;26.80;50.80;;;;;;5082388;28;20028;-69
2023/08/19 05:03:42;;;;;;;2.75;2.10;;;26.80;50.90;;;;;;5081579;28;20033;-71
2023/08/19 05:06:07;;;;;;;2.78;2.00;;;26.80;51.00;;;;;;5079274;28;20035;-70
2023/08/19 05:08:33;;;;;;;3.30;2.20;;;26.80;51.10;;;;;;5079198;28;20499;-71
2023/08/19 05:10:58;;;;;;;4.25;2.03;;;26.80;51.30;;;;;;5081314;28;20050;-71
2023/08/19 05:13:24;;;;;;;3.25;2.40;;;26.70;51.30;;;;;;5080029;28;20031;-71
2023/08/19 05:15:50;;;;;;;2.78;2.15;;;26.70;51.50;;;;;;5081188;28;20028;-71
2023/08/19 05:18:15;;;;;;;2.80;2.10;;;26.70;51.50;;;;;;5081006;28;20388;-71
2023/08/19 05:20:41;;;;;;;3.08;2.20;;;26.60;51.60;;;;;;5078791;28;20116;-71
2023/08/19 05:23:07;;;;;;;2.90;2.20;;;26.60;51.70;;;;;;5080396;28;20052;-64
2023/08/19 05:25:32;;;;;;;3.28;2.47;;;26.60;51.90;;;;;;5080602;28;20036;-63
2023/08/19 05:27:58;;;;;;;3.08;2.30;;;26.50;52.10;;;;;;5080341;28;20040;-63
2023/08/19 05:30:24;;;;;;;4.57;2.55;;;26.50;52.30;;;;;;5078466;28;20029;-63
2023/08/19 05:32:50;;;;;;;3.33;2.72;;;26.50;52.50;;;;;;5081526;28;20158;-64
2023/08/19 05:35:16;;;;;;;3.97;2.70;;;26.50;52.70;;;;;;5079741;28;20029;-63
2023/08/19 05:37:42;;;;;;;4.65;2.50;;;26.40;52.90;;;;;;5079620;28;20111;-64
2023/08/19 05:40:08;;;;;;;3.30;2.60;;;26.40;53.20;;;;;;5080154;28;20095;-64
2023/08/19 05:42:34;;;;;;;4.10;2.58;;;26.40;53.50;;;;;;5080081;28;20355;-65
2023/08/19 05:44:59;;;;;;;4.05;2.80;;;26.30;53.70;;;;;;5077695;28;20032;-63
2023/08/19 05:47:25;;;;;;;3.50;2.80;;;26.30;53.90;;;;;;5079237;28;20556;-64
2023/08/19 05:49:51;;;;;;;4.57;2.67;;;26.30;54.10;;;;;;5080742;28;20032;-65
2023/08/19 05:52:16;;;;;;;3.78;2.75;;;26.20;54.30;;;;;;5079740;28;20400;-64
2023/08/19 05:54:42;;;;;;;3.75;2.55;;;26.20;54.50;;;;;;5079930;28;20999;-63
2023/08/19 05:57:07;;;;;;;3.28;2.83;;;26.20;54.70;;;;;;5079289;28;20028;-65
2023/08/19 05:59:33;;;;;;;5.32;3.00;;;26.20;54.90;;;;;;5081723;28;20028;-64
2023/08/19 06:01:59;;;;;;;4.97;2.92;;;26.20;55.10;;;;;;5077255;28;20388;-64
2023/08/19 06:04:25;;;;;;;4.97;3.20;;;26.10;55.30;;;;;;5077883;28;20028;-65
2023/08/19 06:06:51;;;;;;;3.70;2.92;;;26.10;55.40;;;;;;5063904;28;20036;-65
2023/08/19 06:09:17;;;;;;;4.10;3.25;;;26.10;55.60;;;;;;5078496;28;20020;-64
2023/08/19 06:11:51;;;;;;;5.82;3.35;;;26.00;55.70;;;;;;5080031;28;20020;-65
2023/08/19 06:14:18;;;;;;;3.90;3.22;;;26.00;55.90;;;;;;5076025;28;20035;-67
2023/08/19 06:16:44;;;;;;;4.38;3.00;;;26.00;56.20;;;;;;5081183;28;20428;-66
2023/08/19 06:19:10;;;;;;;3.00;2.42;;;25.90;56.30;;;;;;5077614;28;20058;-66
2023/08/19 06:21:36;;;;;;;3.42;2.20;;;25.90;56.40;;;;;;5079668;28;20035;-65
2023/08/19 06:24:02;;;;;;;3.80;2.58;;;25.90;56.50;;;;;;5079786;28;20032;-65
2023/08/19 06:26:27;;;;;;;3.20;2.40;;;25.90;56.50;;;;;;5077483;28;20038;-65
2023/08/19 06:28:53;;;;;;;3.97;2.58;;;25.90;56.50;;;;;;5077810;28;20472;-65
2023/08/19 06:31:19;;;;;;;3.08;2.22;;;25.90;56.50;;;;;;5077024;28;20235;-63
2023/08/19 06:33:45;;;;;;;4.18;2.50;;;25.80;56.30;;;;;;5077558;28;20131;-65
2023/08/19 06:36:11;;;;;;;3.10;2.45;;;25.90;56.40;;;;;;5080511;28;20036;-64
2023/08/19 06:38:41;;;;;;;2.63;2.17;;;25.80;56.30;;;;;;5079316;28;20413;-65
2023/08/19 06:41:11;;;;;;;2.40;2.00;;;25.80;56.20;;;;;;5077475;28;20016;-63
2023/08/19 06:43:40;;;;;;;3.40;2.20;;;25.90;56.20;;;;;;5076594;28;20514;-63
2023/08/19 06:46:07;;;;;;;2.55;2.08;;;25.90;56.20;;;;;;5076624;28;20383;-63
2023/08/19 06:48:34;;;;;;;3.55;2.30;;;25.90;56.20;;;;;;5078319;28;20028;-64
2023/08/19 06:51:01;;;;;;;2.65;2.28;;;25.90;56.10;;;;;;5078693;28;20142;-64
2023/08/19 06:53:28;;;;;;;2.60;2.00;;;25.90;56.10;;;;;;5077808;28;20506;-64
2023/08/19 06:56:18;;;;;;;2.42;2.08;;;25.90;56.10;;;;;;5062344;28;20064;-65
2023/08/19 06:58:54;;;;;;;2.70;2.08;;;25.90;56.10;;;;;;5078394;28;20057;-63
2023/08/19 07:01:27;;;;;;;2.63;2.30;;;25.90;56.00;;;;;;5077907;28;20127;-64
2023/08/19 07:04:00;;;;;;;2.80;2.10;;;25.90;56.00;;;;;;5079663;28;20016;-64
2023/08/19 07:06:29;;;;;;;3.08;2.30;;;25.90;56.00;;;;;;5078965;28;20032;-63
2023/08/19 07:08:58;;;;;;;2.80;2.13;;;25.90;55.90;;;;;;5077132;28;20448;-64
2023/08/19 07:11:24;;;;;;;3.13;2.05;;;25.90;56.00;;;;;;5078141;28;20050;-65
2023/08/19 07:13:50;;;;;;;2.70;2.20;;;25.90;55.90;;;;;;5075492;28;20376;-63
2023/08/19 07:16:20;;;;;;;2.80;2.10;;;25.90;55.90;;;;;;5076763;28;20063;-65
2023/08/19 07:18:49;;;;;;;2.83;2.00;;;25.80;55.80;;;;;;5078374;28;20017;-64
2023/08/19 07:21:16;;;;;;;2.50;1.98;;;25.90;55.90;;;;;;5077539;28;20020;-64
2023/08/19 07:23:45;;;;;;;2.58;1.92;;;25.90;55.90;;;;;;5077646;28;20392;-63
2023/08/19 07:26:11;;;;;;;3.15;2.10;;;25.90;55.90;;;;;;5078146;28;20032;-65
2023/08/19 07:28:37;;;;;;;2.60;2.03;;;25.90;55.90;;;;;;5078032;28;20047;-63
2023/08/19 07:31:06;;;;;;;2.65;2.10;;;25.90;55.80;;;;;;5079896;28;20054;-62
2023/08/19 07:33:32;;;;;;;;;;;25.90;55.90;;;;;;5077058;28;20533;-64
2023/08/19 07:35:58;;;;;;;2.55;1.80;;;25.90;55.80;;;;;;5078113;28;19909;-63
2023/08/19 07:38:24;;;;;;;2.47;1.90;;;25.90;55.80;;;;;;5076904;28;20035;-64
2023/08/19 07:40:49;;;;;;;2.50;2.00;;;25.90;55.80;;;;;;5078482;28;20375;-64
2023/08/19 07:43:15;;;;;;;3.10;2.00;;;25.90;55.80;;;;;;5077217;28;20499;-68
2023/08/19 07:45:41;;;;;;;2.75;2.00;;;25.90;55.80;;;;;;5079080;28;20431;-68
2023/08/19 07:48:06;;;;;;;3.03;1.98;;;25.90;55.80;;;;;;5078228;28;20036;-69
2023/08/19 07:50:32;;;;;;;2.58;1.85;;;25.90;55.80;;;;;;5077092;28;20472;-68
2023/08/19 07:52:57;;;;;;;3.10;1.90;;;25.90;55.80;;;;;;5078163;28;20029;-68
2023/08/19 07:55:23;;;;;;;2.50;1.88;;;25.90;55.70;;;;;;5075657;28;20032;-68
2023/08/19 07:57:49;;;;;;;2.42;1.73;;;25.90;55.80;;;;;;5078467;28;20111;-69
2023/08/19 08:00:15;;;;;;;2.53;1.95;;;25.90;55.70;;;;;;5078041;28;20104;-68
2023/08/19 08:02:41;;;;;;;2.35;2.05;;;25.90;55.70;;;;;;5067862;28;20096;-68
2023/08/19 08:05:07;;;;;;;2.33;1.92;;;25.90;55.70;;;;;;5076081;28;20421;-68
2023/08/19 08:07:33;;;;;;;2.40;1.60;;;25.90;55.70;;;;;;5078139;28;20091;-68
2023/08/19 08:09:58;;;;;;;2.28;1.80;;;25.90;55.70;;;;;;5079259;28;20028;-69
2023/08/19 08:12:24;;;;;;;2.35;1.95;;;25.90;55.70;;;;;;5079790;28;20917;-70
2023/08/19 08:14:50;;;;;;;2.45;1.85;;;25.90;55.70;;;;;;5076416;28;20086;-70
2023/08/19 08:17:15;;;;;;;2.88;1.92;;;25.90;55.70;;;;;;5081234;28;20016;-69
2023/08/19 08:19:41;;;;;;;2.00;1.77;;;25.90;55.70;;;;;;5083384;28;20391;-69
2023/08/19 08:22:07;;;;;;;2.13;1.83;;;25.90;55.70;;;;;;5080929;28;20479;-69
2023/08/19 08:24:33;;;;;;;2.08;1.67;;;25.90;55.70;;;;;;5083263;28;20344;-69
2023/08/19 08:26:59;;;;;;;2.53;1.85;;;25.90;55.70;;;;;;5081724;28;20028;-69
2023/08/19 08:29:24;;;;;;;2.30;1.83;;;25.90;55.70;;;;;;5080355;28;20027;-69
2023/08/19 08:31:50;;;;;;;2.00;1.70;;;25.90;55.70;;;;;;5081154;28;20027;-72
2023/08/19 08:34:16;;;;;;;2.30;1.80;;;25.90;55.70;;;;;;5080686;28;20079;-67
2023/08/19 08:36:41;;;;;;;2.45;1.90;;;25.90;55.70;;;;;;5081987;28;20058;-63
2023/08/19 08:39:07;;;;;;;2.30;1.90;;;25.90;55.70;;;;;;5080515;28;20570;-64
2023/08/19 08:41:38;;;;;;;2.63;1.80;;;26.00;55.70;;;;;;5079196;28;20471;-64
2023/08/19 08:44:06;;;;;;;2.20;1.77;;;26.00;55.70;;;;;;5080839;28;20472;-64
2023/08/19 08:46:37;;;;;;;2.28;1.80;;;25.90;55.70;;;;;;5081583;28;20032;-64
2023/08/19 08:49:05;;;;;;;2.28;1.70;;;26.00;55.80;;;;;;5080439;28;20111;-63
2023/08/19 08:51:31;;;;;;;2.30;1.70;;;26.00;55.70;;;;;;5082552;28;20024;-63
2023/08/19 08:53:56;;;;;;;2.28;1.67;;;26.00;55.70;;;;;;5079438;28;20050;-63
2023/08/19 08:56:23;;;;;;;2.10;1.77;;;26.00;55.70;;;;;;5082095;28;20032;-63
2023/08/19 08:58:49;;;;;;;2.75;1.73;;;26.00;55.70;;;;;;5079614;28;20154;-64
2023/08/19 09:01:17;;;;;;;1.98;1.70;;;26.00;55.70;;;;;;5078242;28;20080;-64
2023/08/19 09:03:45;;;;;;;2.58;1.60;;;26.00;55.70;;;;;;5080389;28;20115;-65
2023/08/19 09:06:15;;;;;;;2.38;1.80;;;26.00;55.70;;;;;;5081407;28;20032;-64
2023/08/19 09:09:04;;;;;;;2.10;1.70;;;26.00;55.70;;;;;;5080794;28;20033;-63
2023/08/19 09:11:34;;;;;;;2.43;1.70;;;26.00;55.70;;;;;;5080070;28;20380;-64
2023/08/19 09:14:04;;;;;;;2.20;1.70;;;26.00;55.70;;;;;;5079024;28;20039;-63
2023/08/19 09:16:29;;;;;;;2.15;1.67;;;26.00;56.20;;;;;;5079232;28;20036;-63
2023/08/19 09:18:55;;;;;;;2.60;1.80;;;26.00;55.70;;;;;;5080820;28;20039;-63
2023/08/19 09:21:21;;;;;;;2.40;1.80;;;26.00;55.70;;;;;;5079894;28;20131;-63
2023/08/19 09:23:46;;;;;;;1.92;1.70;;;26.00;55.70;;;;;;5080021;28;20097;-65
2023/08/19 09:26:12;;;;;;;1.92;1.60;;;26.00;55.70;;;;;;5082498;28;20039;-64
2023/08/19 09:28:38;;;;;;;1.85;1.52;;;26.00;55.70;;;;;;5081099;28;20032;-63
2023/08/19 09:31:20;;;;;;;1.90;1.52;;;26.00;55.60;;;;;;5080627;28;20047;-65
2023/08/19 09:33:47;;;;;;;1.90;1.50;;;26.00;55.60;;;;;;5079741;28;20038;-63
2023/08/19 09:36:13;;;;;;;2.30;1.70;;;26.00;55.70;;;;;;5077794;28;20391;-65
2023/08/19 09:38:40;;;;;;;2.15;1.70;;;26.00;55.70;;;;;;5080838;28;20067;-65
2023/08/19 09:41:10;;;;;;;2.10;1.50;;;26.00;55.60;;;;;;5078289;28;20020;-64
2023/08/19 09:43:38;;;;;;;;;;;26.00;55.60;;;;;;5081406;28;20028;-72
2023/08/19 09:46:04;;;;;;;1.77;1.35;;;26.00;55.60;;;;;;5076203;28;20338;-72
2023/08/19 09:48:30;;;;;;;2.30;1.70;;;26.00;55.60;;;;;;5076773;28;20033;-71
2023/08/19 09:50:56;;;;;;;1.92;1.52;;;26.00;55.60;;;;;;5081495;28;20032;-72
2023/08/19 09:53:22;;;;;;;1.73;1.40;;;26.10;55.70;;;;;;5078949;28;20021;-72
2023/08/19 09:55:49;;;;;;;2.10;1.73;;;26.10;55.70;;;;;;5079351;28;20039;-71
2023/08/19 09:58:16;;;;;;;1.58;1.30;;;26.00;55.60;;;;;;5078979;28;20075;-72
2023/08/19 10:00:43;;;;;;;1.60;1.40;;;26.10;55.70;;;;;;5080414;28;20067;-71
2023/08/19 10:03:09;;;;;;;1.95;1.50;;;26.00;55.70;;;;;;5079495;28;20028;-65
2023/08/19 10:05:39;;;;;;;2.03;1.50;;;26.10;55.70;;;;;;5080151;28;20074;-63
2023/08/19 10:08:13;;;;;;;2.03;1.58;;;26.00;55.60;;;;;;5079548;28;20380;-66
2023/08/19 10:10:42;;;;;;;1.95;1.50;;;26.10;55.70;;;;;;5079741;28;20036;-64
2023/08/19 10:13:08;;;;;;;;;;;26.10;55.70;;;;;;5078837;28;20040;-64
2023/08/19 10:15:37;;;;;;;2.00;1.50;;;26.10;55.70;;;;;;5079120;28;20332;-65
2023/08/19 10:18:13;;;;;;;2.15;1.88;;;26.10;55.70;;;;;;5078857;28;20027;-64
2023/08/19 10:20:40;;;;;;;2.25;1.65;;;26.10;55.70;;;;;;5080040;28;20530;-64
2023/08/19 10:23:07;;;;;;;2.08;1.70;;;26.10;55.70;;;;;;5079837;28;20032;-64
2023/08/19 10:25:33;;;;;;;1.98;1.50;;;26.10;55.70;;;;;;5061924;28;20115;-64
2023/08/19 10:28:12;;;;;;;1.55;1.40;;;26.10;55.70;;;;;;5076660;28;20115;-63
2023/08/19 10:30:38;;;;;;;1.98;1.60;;;26.10;55.70;;;;;;5078645;28;20513;-64
2023/08/19 10:33:25;;;;;;;2.50;1.60;;;26.10;55.70;;;;;;5061831;28;20107;-64
2023/08/19 10:36:04;;;;;;;2.13;1.50;;;26.10;55.70;;;;;;5077516;28;20070;-63
2023/08/19 10:38:45;;;;;;;;;;;26.10;55.70;;;;;;5077289;28;20016;-65
2023/08/19 10:41:18;;;;;;;1.65;1.30;;;26.10;55.70;;;;;;5077034;28;19908;-63
2023/08/19 10:43:59;;;;;;;2.00;1.40;;;26.10;55.70;;;;;;5078305;28;20028;-65
2023/08/19 10:46:42;;;;;;;1.88;1.40;;;26.10;55.70;;;;;;5075736;28;20096;-63
2023/08/19 10:49:23;;;;;;;1.70;1.50;;;26.10;55.60;;;;;;5077825;28;20504;-63
2023/08/19 10:52:00;;;;;;;1.80;1.50;;;26.10;55.70;;;;;;5078849;28;20479;-65
2023/08/19 10:54:40;;;;;;;2.50;1.50;;;26.10;55.70;;;;;;5077480;28;20027;-66
2023/08/19 10:57:11;;;;;;;1.33;1.20;;;26.10;55.70;;;;;;5078843;28;20027;-66
2023/08/19 10:59:38;;;;;;;1.80;1.58;;;26.10;55.60;;;;;;5077713;28;20021;-66
2023/08/19 11:02:08;;;;;;;2.13;1.52;;;26.10;55.70;;;;;;5078742;28;20067;-66
2023/08/19 11:04:37;;;;;;;1.70;1.50;;;26.20;55.70;;;;;;5078917;28;20021;-66
2023/08/19 11:07:05;;;;;;;2.17;1.40;;;26.20;55.70;;;;;;5077738;28;20070;-66
2023/08/19 11:09:30;;;;;;;2.20;1.52;;;26.20;55.70;;;;;;5078402;28;20021;-66
2023/08/19 11:11:57;;;;;;;1.80;1.50;;;26.20;55.70;;;;;;5076991;28;20035;-65
2023/08/19 11:14:23;;;;;;;2.10;1.55;;;26.20;55.80;;;;;;5077321;28;20103;-68
2023/08/19 11:16:49;;;;;;;2.00;1.60;;;26.20;55.70;;;;;;5076464;28;20119;-69
2023/08/19 11:19:16;;;;;;;1.60;1.40;;;26.20;55.70;;;;;;5078430;28;20082;-68
2023/08/19 11:21:42;;;;;;;1.90;1.50;;;26.20;55.80;;;;;;5077509;28;20046;-69
2023/08/19 11:24:08;;;;;;;1.58;1.40;;;26.20;55.80;;;;;;5078754;28;20071;-69
2023/08/19 11:26:35;;;;;;;2.13;1.40;;;26.20;55.70;;;;;;5077555;28;20024;-68
2023/08/19 11:29:05;;;;;;;1.75;1.40;;;26.20;55.70;;;;;;5079289;28;20027;-69
2023/08/19 11:31:32;;;;;;;1.70;1.33;;;26.20;55.70;;;;;;5077486;28;20028;-69
2023/08/19 11:33:57;;;;;;;1.60;1.40;;;26.30;55.80;;;;;;5078668;28;20111;-69
2023/08/19 11:36:26;;;;;;;1.70;1.30;;;26.20;55.80;;;;;;5080240;28;20111;-69
2023/08/19 11:38:56;;;;;;;1.58;1.38;;;26.30;55.80;;;;;;5077758;28;20369;-68
2023/08/19 11:41:22;;;;;;;1.80;1.50;;;26.30;55.70;;;;;;5077111;28;20020;-68
2023/08/19 11:43:50;;;;;;;1.95;1.50;;;26.30;55.80;;;;;;5078251;28;20476;-68
2023/08/19 11:46:16;;;;;;;1.90;1.47;;;26.30;55.80;;;;;;5077704;28;20025;-68
2023/08/19 11:48:42;;;;;;;1.75;1.50;;;26.30;55.80;;;;;;5076454;28;20033;-69
2023/08/19 11:51:12;;;;;;;1.55;1.25;;;26.30;55.80;;;;;;5078785;28;20095;-68
2023/08/19 11:53:40;;;;;;;1.67;1.30;;;26.30;55.80;;;;;;5082847;28;20473;-68
2023/08/19 11:56:06;;;;;;;1.92;1.50;;;26.30;55.80;;;;;;5067397;28;20043;-68
2023/08/19 11:58:51;;;;;;;1.45;1.20;;;26.30;55.70;;;;;;5085303;28;20448;-72
2023/08/19 12:01:24;;;;;;;1.55;1.23;;;26.30;55.70;;;;;;5081417;28;20472;-72
2023/08/19 12:03:52;;;;;;;1.85;1.38;;;26.30;55.80;;;;;;5082065;28;20024;-64
2023/08/19 12:06:18;;;;;;;1.65;1.30;;;26.30;55.70;;;;;;5082192;28;20024;-64
2023/08/19 12:08:47;;;;;;;2.05;1.50;;;26.30;55.70;;;;;;5081889;28;20115;-64
2023/08/19 12:11:13;;;;;;;;;;;26.30;55.70;;;;;;5080387;28;20538;-65
2023/08/19 12:13:39;;;;;;;1.80;1.40;;;26.30;55.70;;;;;;5082263;28;19933;-65
2023/08/19 12:16:07;;;;;;;1.95;1.35;;;26.30;55.70;;;;;;5079950;28;20021;-65
2023/08/19 12:18:35;;;;;;;1.73;1.40;;;26.40;55.80;;;;;;5080274;28;20392;-65
2023/08/19 12:21:03;;;;;;;1.60;1.30;;;26.40;55.80;;;;;;5082805;28;20029;-65
2023/08/19 12:23:29;;;;;;;1.80;1.55;;;26.30;55.70;;;;;;5078160;28;20043;-62
2023/08/19 12:25:57;;;;;;;1.65;1.20;;;26.40;55.90;;;;;;5080879;28;20032;-61
2023/08/19 12:28:24;;;;;;;1.50;1.20;;;26.40;56.10;;;;;;5080268;28;20987;-64
2023/08/19 12:30:52;;;;;;;2.70;1.58;;;26.40;56.00;;;;;;5081869;28;20027;-63
2023/08/19 12:33:19;;;;;;;2.45;1.73;;;26.40;56.00;;;;;;5081285;28;20031;-63
2023/08/19 12:35:46;;;;;;;1.63;1.35;;;26.50;56.00;;;;;;5082083;28;20498;-63
2023/08/19 12:38:16;;;;;;;2.50;1.52;;;26.50;55.90;;;;;;5081200;28;20413;-65
2023/08/19 12:40:42;;;;;;;2.47;1.85;;;26.60;55.90;;;;;;5081079;28;20089;-63
2023/08/19 12:43:09;;;;;;;2.17;1.60;;;26.60;55.90;;;;;;5063235;28;20024;-63
2023/08/19 12:45:35;;;;;;;2.15;1.77;;;26.60;55.90;;;;;;5080360;28;20021;-64
2023/08/19 12:48:00;;;;;;;2.10;1.60;;;26.60;55.90;;;;;;5079821;28;20039;-63